Time;durP1;ratioP1;P1;durP2;ratioP2;P2;SDS_P1;SDS_P2;PMS_P1;PMS_P2;Temp;Humidity;BMP_temperature;BMP_pressure;BME280_temperature;BME280_humidity;BME280_pressure;Samples;Min_cycle;Max_cycle;Signal;HPM_P1;HPM_P2
2022/06/15 00:01:35;;;;;;;1.55;1.05;;;18.30;77.90;;;;;;5010894;28;20264;-71
2022/06/15 00:04:03;;;;;;;2.95;1.10;;;18.30;78.80;;;;;;5013144;28;20737;-71
2022/06/15 00:06:38;;;;;;;1.20;1.00;;;18.30;79.10;;;;;;5014173;28;20193;-69
2022/06/15 00:09:07;;;;;;;2.20;1.20;;;18.20;79.10;;;;;;5014216;28;20259;-71
2022/06/15 00:11:37;;;;;;;0.98;0.90;;;18.10;79.50;;;;;;5013698;28;20244;-70
2022/06/15 00:14:08;;;;;;;2.30;1.55;;;18.10;79.80;;;;;;5013896;28;20248;-71
2022/06/15 00:16:36;;;;;;;1.23;1.13;;;18.10;79.80;;;;;;5014388;28;20259;-71
2022/06/15 00:19:05;;;;;;;2.20;1.05;;;18.00;80.10;;;;;;5014247;28;20291;-71
2022/06/15 00:21:34;;;;;;;1.60;1.25;;;18.00;80.10;;;;;;5014284;28;20202;-70
2022/06/15 00:24:02;;;;;;;1.23;0.88;;;17.90;80.40;;;;;;5013348;28;20213;-71
2022/06/15 00:26:30;;;;;;;0.90;0.80;;;17.90;80.80;;;;;;5014264;28;20280;-70
2022/06/15 00:28:58;;;;;;;2.47;1.40;;;17.90;80.90;;;;;;5014121;28;20741;-71
2022/06/15 00:31:26;;;;;;;1.65;1.55;;;17.80;80.90;;;;;;5014223;28;20232;-70
2022/06/15 00:33:54;;;;;;;4.07;1.02;;;17.80;81.10;;;;;;5013192;28;20263;-71
2022/06/15 00:36:22;;;;;;;1.20;1.10;;;17.70;81.10;;;;;;5013748;28;20217;-70
2022/06/15 00:38:54;;;;;;;2.47;1.50;;;17.80;82.00;;;;;;5015577;28;20285;-70
2022/06/15 00:41:25;;;;;;;1.77;1.10;;;17.70;81.20;;;;;;5013844;28;20197;-71
2022/06/15 00:43:56;;;;;;;0.90;0.80;;;17.70;81.50;;;;;;5013223;28;20264;-71
2022/06/15 00:46:29;;;;;;;1.60;0.90;;;17.70;81.70;;;;;;5013205;28;20189;-71
2022/06/15 00:49:01;;;;;;;1.90;0.90;;;17.70;82.00;;;;;;5013704;28;20651;-71
2022/06/15 00:51:30;;;;;;;4.10;1.08;;;17.60;82.40;;;;;;5013859;28;20209;-69
2022/06/15 00:54:00;;;;;;;1.40;1.00;;;17.60;82.10;;;;;;5012639;28;20209;-70
2022/06/15 00:56:30;;;;;;;3.35;1.35;;;17.60;82.30;;;;;;5013637;28;20245;-70
2022/06/15 00:59:03;;;;;;;0.98;0.88;;;17.60;82.60;;;;;;5013470;28;20264;-71
2022/06/15 01:01:30;;;;;;;1.98;1.23;;;17.60;83.10;;;;;;5013103;28;20267;-70
2022/06/15 01:04:00;;;;;;;1.55;1.25;;;17.40;83.20;;;;;;5013030;28;20211;-70
2022/06/15 01:06:49;;;;;;;1.65;0.88;;;17.40;83.40;;;;;;5013505;28;20288;-71
2022/06/15 01:09:22;;;;;;;1.70;1.00;;;17.40;84.00;;;;;;5013111;28;20221;-70
2022/06/15 01:12:02;;;;;;;1.52;1.25;;;17.40;83.90;;;;;;5013052;28;20209;-71
2022/06/15 01:15:06;;;;;;;2.30;1.30;;;17.40;84.10;;;;;;5012139;28;20209;-71
2022/06/15 01:17:46;;;;;;;2.15;0.93;;;17.30;84.10;;;;;;5010027;28;20210;-70
2022/06/15 01:20:27;;;;;;;1.80;1.08;;;17.20;84.60;;;;;;5009315;28;20267;-70
2022/06/15 01:23:26;;;;;;;1.38;1.00;;;17.20;85.00;;;;;;5008554;28;20204;-70
2022/06/15 01:26:14;;;;;;;2.92;1.25;;;17.10;85.40;;;;;;5013184;28;20689;-70
2022/06/15 01:28:45;;;;;;;2.55;1.55;;;17.00;85.70;;;;;;5012948;28;20221;-71
2022/06/15 01:31:30;;;;;;;2.10;1.25;;;17.00;86.30;;;;;;5013166;28;20205;-71
2022/06/15 01:34:11;;;;;;;1.63;1.10;;;16.90;86.20;;;;;;5006781;28;20205;-71
2022/06/15 01:36:47;;;;;;;1.52;1.20;;;16.80;86.50;;;;;;5012946;28;20267;-71
2022/06/15 01:39:20;;;;;;;1.63;1.35;;;16.70;86.80;;;;;;5012336;28;20709;-71
2022/06/15 01:41:53;;;;;;;1.60;1.25;;;16.80;87.40;;;;;;5012682;28;20556;-71
2022/06/15 01:44:25;;;;;;;1.33;1.13;;;16.70;88.00;;;;;;5011891;28;20263;-71
2022/06/15 01:46:56;;;;;;;3.22;1.10;;;16.60;88.80;;;;;;5012589;28;20588;-71
2022/06/15 01:49:28;;;;;;;3.33;1.20;;;16.60;89.20;;;;;;5012392;28;20371;-71
2022/06/15 01:51:58;;;;;;;1.73;0.85;;;16.60;88.70;;;;;;5012302;28;20296;-68
2022/06/15 01:54:32;;;;;;;1.98;1.15;;;16.50;89.60;;;;;;5011919;28;20209;-70
2022/06/15 01:57:04;;;;;;;2.97;1.55;;;16.50;89.30;;;;;;5012620;28;20217;-71
2022/06/15 01:59:37;;;;;;;1.10;0.90;;;16.50;90.00;;;;;;5012203;28;20245;-71
2022/06/15 02:02:13;;;;;;;1.95;1.30;;;16.40;90.10;;;;;;5011516;28;20232;-70
2022/06/15 02:04:45;;;;;;;4.53;1.40;;;16.40;90.30;;;;;;5012547;28;20205;-71
2022/06/15 02:07:23;;;;;;;1.00;0.90;;;16.40;90.50;;;;;;5012462;28;20331;-70
2022/06/15 02:09:56;;;;;;;1.90;1.10;;;16.30;90.70;;;;;;5011174;28;20229;-71
2022/06/15 02:12:30;;;;;;;1.77;1.00;;;16.20;91.10;;;;;;5011344;28;20295;-71
2022/06/15 02:14:59;;;;;;;2.20;1.27;;;16.10;91.10;;;;;;5012375;28;20683;-71
2022/06/15 02:17:32;;;;;;;1.75;1.45;;;16.00;91.50;;;;;;5012022;28;20275;-70
2022/06/15 02:20:03;;;;;;;2.50;1.20;;;15.90;91.70;;;;;;5012191;28;20224;-71
2022/06/15 02:22:33;;;;;;;2.40;1.20;;;15.80;92.00;;;;;;5005481;28;20201;-70
2022/06/15 02:25:07;;;;;;;5.68;1.67;;;15.70;92.30;;;;;;5010836;28;20225;-71
2022/06/15 02:27:38;;;;;;;1.65;1.20;;;15.60;92.70;;;;;;5012064;28;20201;-70
2022/06/15 02:30:14;;;;;;;3.78;1.45;;;15.50;93.10;;;;;;5012057;28;20256;-71
2022/06/15 02:32:46;;;;;;;2.78;1.27;;;15.50;93.00;;;;;;5011306;28;20196;-71
2022/06/15 02:35:15;;;;;;;2.33;1.23;;;15.50;93.20;;;;;;5011070;28;20255;-71
2022/06/15 02:37:43;;;;;;;1.90;1.30;;;15.40;93.40;;;;;;5011779;28;20271;-71
2022/06/15 02:40:13;;;;;;;1.42;1.13;;;15.50;93.70;;;;;;5011413;28;20260;-71
2022/06/15 02:42:41;;;;;;;1.45;1.17;;;15.40;93.70;;;;;;5011091;28;20205;-71
2022/06/15 02:45:12;;;;;;;2.10;1.33;;;15.40;93.80;;;;;;5011747;28;20225;-70
2022/06/15 02:47:42;;;;;;;2.55;1.20;;;15.50;94.10;;;;;;4993777;28;20737;-71
2022/06/15 02:50:17;;;;;;;3.63;1.42;;;15.50;94.20;;;;;;5011189;28;20252;-71
2022/06/15 02:52:49;;;;;;;3.63;1.60;;;15.50;94.30;;;;;;5010855;28;20205;-71
2022/06/15 02:55:19;;;;;;;1.52;1.10;;;15.50;94.40;;;;;;5011495;28;20255;-71
2022/06/15 02:57:50;;;;;;;4.50;1.40;;;15.50;94.50;;;;;;5011566;28;20293;-71
2022/06/15 03:00:20;;;;;;;1.65;1.48;;;15.50;94.80;;;;;;5011080;28;20269;-71
2022/06/15 03:02:48;;;;;;;1.60;1.23;;;15.50;94.70;;;;;;5004231;28;20935;-70
2022/06/15 03:05:18;;;;;;;4.40;1.20;;;15.50;94.60;;;;;;5010973;28;20592;-71
2022/06/15 03:07:46;;;;;;;2.05;1.10;;;15.40;94.70;;;;;;4988602;28;20665;-69
2022/06/15 03:10:14;;;;;;;2.90;1.60;;;15.40;95.10;;;;;;5004885;28;20284;-70
2022/06/15 03:12:42;;;;;;;2.15;1.15;;;15.40;95.00;;;;;;5007574;28;20228;-70
2022/06/15 03:15:11;;;;;;;1.92;1.45;;;15.40;95.40;;;;;;5005062;28;20221;-71
2022/06/15 03:17:39;;;;;;;1.67;1.40;;;15.40;95.40;;;;;;4987393;28;20267;-71
2022/06/15 03:20:08;;;;;;;1.50;1.40;;;15.40;95.40;;;;;;5006403;28;20233;-71
2022/06/15 03:22:38;;;;;;;2.00;1.27;;;15.40;95.30;;;;;;5004200;28;20263;-70
2022/06/15 03:25:07;;;;;;;1.58;1.40;;;15.50;95.20;;;;;;5005187;28;20206;-71
2022/06/15 03:27:35;;;;;;;1.85;1.20;;;15.50;95.40;;;;;;5011335;28;20650;-71
2022/06/15 03:30:06;;;;;;;2.00;1.23;;;15.60;94.90;;;;;;5011037;28;20320;-71
2022/06/15 03:32:34;;;;;;;3.03;1.55;;;15.60;95.00;;;;;;5010439;28;20220;-71
2022/06/15 03:35:02;;;;;;;1.80;1.00;;;15.60;95.00;;;;;;5010876;28;20209;-70
2022/06/15 03:37:30;;;;;;;3.25;1.45;;;15.70;95.30;;;;;;5011745;28;20259;-70
2022/06/15 03:40:00;;;;;;;2.60;1.45;;;15.70;95.00;;;;;;5014011;28;20247;-71
2022/06/15 03:42:28;;;;;;;1.77;1.38;;;15.80;95.10;;;;;;5014167;28;20239;-70
2022/06/15 03:44:55;;;;;;;1.77;1.60;;;15.80;95.10;;;;;;5015132;28;20232;-70
2022/06/15 03:47:23;;;;;;;1.70;1.42;;;15.90;94.80;;;;;;5014978;28;20205;-70
2022/06/15 03:49:53;;;;;;;1.75;1.27;;;15.90;95.00;;;;;;5014992;28;20248;-70
2022/06/15 03:52:23;;;;;;;1.85;1.20;;;16.00;95.10;;;;;;5013995;28;20213;-70
2022/06/15 03:54:52;;;;;;;2.25;1.40;;;15.90;95.50;;;;;;5014804;28;20659;-71
2022/06/15 03:57:22;;;;;;;2.50;1.42;;;15.90;95.30;;;;;;5014913;28;20201;-70
2022/06/15 03:59:50;;;;;;;1.30;1.20;;;16.00;95.60;;;;;;5015299;28;20316;-71
2022/06/15 04:02:18;;;;;;;2.45;1.30;;;16.00;95.70;;;;;;5014110;28;20825;-70
2022/06/15 04:04:46;;;;;;;2.47;1.52;;;16.00;95.60;;;;;;5014363;28;20670;-70
2022/06/15 04:10:10;;;;;;;2.20;1.60;;;16.10;95.90;;;;;;4964726;28;20751;-70
2022/06/15 04:12:39;;;;;;;2.03;1.10;;;16.10;96.40;;;;;;5013809;28;20280;-71
2022/06/15 04:15:08;;;;;;;3.20;1.30;;;16.10;96.60;;;;;;5013599;28;20228;-71
2022/06/15 04:17:36;;;;;;;3.20;1.67;;;16.10;96.70;;;;;;5014388;28;20240;-71
2022/06/15 04:22:49;;;;;;;3.30;1.30;;;16.20;97.10;;;;;;5013504;28;20236;-70
2022/06/15 04:25:17;;;;;;;1.70;1.25;;;16.20;97.10;;;;;;5014193;28;20553;-71
2022/06/15 04:27:47;;;;;;;1.15;0.90;;;16.20;97.90;;;;;;5014138;28;20236;-70
2022/06/15 04:30:14;;;;;;;3.63;1.13;;;16.30;96.70;;;;;;5014187;28;20300;-71
2022/06/15 04:32:42;;;;;;;2.25;1.25;;;16.30;98.10;;;;;;5013365;28;20233;-70
2022/06/15 04:35:10;;;;;;;4.03;1.75;;;16.40;97.20;;;;;;5013854;28;20205;-71
2022/06/15 04:37:38;;;;;;;1.55;1.27;;;16.40;97.80;;;;;;5013786;28;20304;-68
2022/06/15 04:40:08;;;;;;;2.70;1.15;;;16.50;97.80;;;;;;5013533;28;20748;-70
2022/06/15 04:42:37;;;;;;;1.58;1.40;;;16.60;97.80;;;;;;5013379;28;20237;-71
2022/06/15 04:45:07;;;;;;;5.85;1.55;;;16.60;98.00;;;;;;5013740;28;20210;-70
2022/06/15 04:47:35;;;;;;;2.75;1.60;;;16.60;97.80;;;;;;5013971;28;20239;-70
2022/06/15 04:50:04;;;;;;;3.83;1.10;;;16.70;98.00;;;;;;5013395;28;20244;-71
2022/06/15 04:52:32;;;;;;;7.07;1.63;;;16.70;98.00;;;;;;5013113;28;20224;-70
2022/06/15 04:55:03;;;;;;;3.55;1.63;;;16.80;98.00;;;;;;5013206;28;20206;-71
2022/06/15 04:57:31;;;;;;;1.67;1.20;;;16.80;98.30;;;;;;5013689;28;20627;-71
2022/06/15 04:59:59;;;;;;;4.97;1.40;;;16.90;98.00;;;;;;5013262;28;20295;-71
2022/06/15 05:02:28;;;;;;;4.20;1.45;;;17.00;97.90;;;;;;5012960;28;20264;-71
2022/06/15 05:04:59;;;;;;;3.13;1.50;;;17.00;98.10;;;;;;5012662;28;20200;-71
2022/06/15 05:07:26;;;;;;;3.28;1.80;;;17.10;97.60;;;;;;5013425;28;20206;-71
2022/06/15 05:09:54;;;;;;;3.70;1.45;;;17.20;97.70;;;;;;5012508;28;20641;-70
2022/06/15 05:12:22;;;;;;;3.72;1.42;;;17.20;98.30;;;;;;5012684;28;20205;-70
2022/06/15 05:14:50;;;;;;;1.48;1.35;;;17.30;98.10;;;;;;5012980;28;20244;-70
2022/06/15 05:17:20;;;;;;;5.38;1.70;;;17.40;97.70;;;;;;5013296;28;20233;-70
2022/06/15 05:19:49;;;;;;;4.95;1.90;;;17.40;98.10;;;;;;5013181;28;20252;-70
2022/06/15 05:22:17;;;;;;;5.25;1.73;;;17.50;98.30;;;;;;5012596;28;20201;-70
2022/06/15 05:24:46;;;;;;;2.97;1.75;;;17.50;98.00;;;;;;5012960;28;20209;-70
2022/06/15 05:27:14;;;;;;;2.25;1.70;;;17.60;98.30;;;;;;5012709;28;20206;-70
2022/06/15 05:29:42;;;;;;;3.35;2.03;;;17.60;98.50;;;;;;5013013;28;20253;-70
2022/06/15 05:32:10;;;;;;;1.42;1.30;;;17.70;98.60;;;;;;5012580;28;20197;-70
2022/06/15 05:34:38;;;;;;;2.20;1.60;;;17.80;98.50;;;;;;5012705;28;20228;-70
2022/06/15 05:37:07;;;;;;;2.55;1.80;;;17.90;98.40;;;;;;5012966;28;20206;-71
2022/06/15 05:39:36;;;;;;;2.10;1.45;;;18.00;97.90;;;;;;5009792;28;20316;-71
2022/06/15 05:42:04;;;;;;;2.88;2.05;;;18.10;98.20;;;;;;5011728;28;20264;-70
2022/06/15 05:44:37;;;;;;;4.60;1.70;;;18.20;97.90;;;;;;5012373;28;20205;-71
2022/06/15 05:47:06;;;;;;;5.10;1.85;;;18.30;97.90;;;;;;5012326;28;20236;-71
2022/06/15 05:49:35;;;;;;;2.83;1.25;;;18.40;98.10;;;;;;5005435;28;20236;-69
2022/06/15 05:52:03;;;;;;;8.43;1.60;;;18.60;97.70;;;;;;5001313;28;20654;-70
2022/06/15 05:54:33;;;;;;;9.73;1.92;;;18.70;97.60;;;;;;5012093;28;20197;-71
2022/06/15 05:57:01;;;;;;;3.05;1.40;;;18.80;97.00;;;;;;5012503;28;20292;-70
2022/06/15 05:59:28;;;;;;;2.67;1.50;;;18.80;97.10;;;;;;5012031;28;20704;-71
2022/06/15 06:01:56;;;;;;;4.88;1.75;;;18.90;96.70;;;;;;5011130;28;20201;-70
2022/06/15 06:04:24;;;;;;;6.22;1.90;;;19.00;96.80;;;;;;5012168;28;20288;-71
2022/06/15 06:06:52;;;;;;;3.03;1.55;;;19.10;96.80;;;;;;5012376;28;20205;-71
2022/06/15 06:09:20;;;;;;;2.00;1.27;;;19.20;96.50;;;;;;5012105;28;20245;-72
2022/06/15 06:11:49;;;;;;;3.83;1.25;;;19.30;96.60;;;;;;5012020;28;20225;-70
2022/06/15 06:14:17;;;;;;;3.42;1.63;;;19.40;96.20;;;;;;5005315;28;20244;-70
2022/06/15 06:16:45;;;;;;;4.85;1.50;;;19.40;95.00;;;;;;5011705;28;20197;-71
2022/06/15 06:19:13;;;;;;;4.70;1.73;;;19.50;95.30;;;;;;5012094;28;20221;-70
2022/06/15 06:21:43;;;;;;;5.57;1.50;;;19.60;95.00;;;;;;5012079;28;20259;-71
2022/06/15 06:24:10;;;;;;;4.10;2.47;;;19.70;95.00;;;;;;5011020;28;20252;-70
2022/06/15 06:26:39;;;;;;;5.45;2.33;;;19.80;95.10;;;;;;5011898;28;20636;-70
2022/06/15 06:29:11;;;;;;;3.67;1.48;;;20.00;94.90;;;;;;5011856;28;20235;-70
2022/06/15 06:31:39;;;;;;;5.55;1.60;;;20.10;94.40;;;;;;5012051;28;20813;-71
2022/06/15 06:34:07;;;;;;;3.58;1.52;;;20.20;94.40;;;;;;5011088;28;20208;-70
2022/06/15 06:36:40;;;;;;;3.55;1.58;;;20.30;95.70;;;;;;5011604;28;20259;-71
2022/06/15 06:39:14;;;;;;;2.78;1.27;;;20.50;94.40;;;;;;5011517;28;20317;-71
2022/06/15 06:41:43;;;;;;;2.25;1.50;;;20.70;94.20;;;;;;5011571;28;20235;-70
2022/06/15 06:44:13;;;;;;;2.33;1.40;;;20.80;93.30;;;;;;5010736;28;20614;-71
2022/06/15 06:46:44;;;;;;;4.80;1.45;;;20.80;92.60;;;;;;5011637;28;20689;-71
2022/06/15 06:49:13;;;;;;;4.97;1.92;;;20.90;93.30;;;;;;5011470;28;20225;-71
2022/06/15 06:51:43;;;;;;;2.67;1.42;;;21.00;93.70;;;;;;5011207;28;20197;-70
2022/06/15 06:54:12;;;;;;;6.43;1.52;;;21.20;92.80;;;;;;5010623;28;20268;-71
2022/06/15 06:56:40;;;;;;;5.18;1.95;;;21.30;93.10;;;;;;5011767;28;20251;-71
2022/06/15 06:59:10;;;;;;;2.53;1.40;;;21.50;92.10;;;;;;5011262;28;20303;-71
2022/06/15 07:01:41;;;;;;;5.20;2.10;;;21.50;91.90;;;;;;5011645;28;20225;-71
2022/06/15 07:04:11;;;;;;;2.50;1.63;;;21.50;92.40;;;;;;5010701;28;20241;-71
2022/06/15 07:06:40;;;;;;;5.63;1.67;;;21.70;92.20;;;;;;5011260;28;20877;-71
2022/06/15 07:09:08;;;;;;;3.25;1.50;;;21.70;91.30;;;;;;5011132;28;20659;-71
2022/06/15 07:11:36;;;;;;;2.63;2.03;;;21.60;92.20;;;;;;5010553;28;20892;-70
2022/06/15 07:14:05;;;;;;;3.28;2.05;;;21.60;91.60;;;;;;5008058;28;20203;-70
2022/06/15 07:16:41;;;;;;;7.40;2.03;;;21.70;92.30;;;;;;5011179;28;20678;-71
2022/06/15 07:19:10;;;;;;;1.52;1.42;;;21.90;92.70;;;;;;5011201;28;20233;-71
2022/06/15 07:21:39;;;;;;;4.15;1.98;;;22.00;93.00;;;;;;5010586;28;20225;-71
2022/06/15 07:24:08;;;;;;;2.72;1.90;;;22.00;91.60;;;;;;5010458;28;20236;-70
2022/06/15 07:26:41;;;;;;;2.95;1.50;;;22.10;92.00;;;;;;5011284;28;20213;-72
2022/06/15 07:29:11;;;;;;;3.53;1.60;;;22.10;91.70;;;;;;5011029;28;20252;-71
2022/06/15 07:31:43;;;;;;;3.72;1.67;;;22.10;91.80;;;;;;5005049;28;20721;-71
2022/06/15 07:34:12;;;;;;;2.78;1.70;;;22.30;92.30;;;;;;5004508;28;20228;-71
2022/06/15 07:36:46;;;;;;;7.90;2.00;;;22.40;92.60;;;;;;5010491;28;20243;-70
2022/06/15 07:39:16;;;;;;;4.10;2.30;;;22.50;91.90;;;;;;5011058;28;20225;-70
2022/06/15 07:41:44;;;;;;;3.15;1.63;;;22.50;91.40;;;;;;5010605;28;20218;-70
2022/06/15 07:44:13;;;;;;;2.55;1.95;;;22.60;91.80;;;;;;5010240;28;20830;-71
2022/06/15 07:46:42;;;;;;;4.65;1.83;;;22.70;92.30;;;;;;5011042;28;20209;-70
2022/06/15 07:51:59;;;;;;;5.60;1.88;;;23.00;91.70;;;;;;5010843;28;20679;-71
2022/06/15 07:54:28;;;;;;;3.92;1.98;;;23.10;91.60;;;;;;5010358;28;20241;-71
2022/06/15 07:56:57;;;;;;;2.65;1.70;;;23.20;91.90;;;;;;5010783;28;20224;-71
2022/06/15 07:59:26;;;;;;;3.58;2.00;;;23.30;90.80;;;;;;5010819;28;20298;-70
2022/06/15 08:01:55;;;;;;;2.85;1.70;;;23.30;90.90;;;;;;5011249;28;20225;-71
2022/06/15 08:04:23;;;;;;;6.70;2.00;;;23.30;90.50;;;;;;5010599;28;20574;-71
2022/06/15 08:06:51;;;;;;;4.03;1.73;;;23.40;90.60;;;;;;5011100;28;20209;-70
2022/06/15 08:09:19;;;;;;;8.55;1.98;;;23.50;91.60;;;;;;5010891;28;20772;-70
2022/06/15 08:14:30;;;;;;;4.57;2.30;;;23.80;91.20;;;;;;5004440;28;20251;-71
2022/06/15 08:17:01;;;;;;;4.25;2.10;;;23.90;90.40;;;;;;5005480;28;20251;-70
2022/06/15 08:19:31;;;;;;;3.63;1.90;;;24.10;90.50;;;;;;5005784;28;20233;-71
2022/06/15 08:21:59;;;;;;;3.60;2.08;;;24.30;90.40;;;;;;4993516;28;20816;-69
2022/06/15 08:24:27;;;;;;;5.15;2.15;;;24.50;89.10;;;;;;5013196;28;20205;-70
2022/06/15 08:26:55;;;;;;;3.75;1.65;;;24.60;89.80;;;;;;5013761;28;20197;-71
2022/06/15 08:29:23;;;;;;;4.50;1.90;;;24.70;89.70;;;;;;5014647;28;20699;-70
2022/06/15 08:31:53;;;;;;;5.85;2.33;;;25.00;90.20;;;;;;5014304;28;20194;-71
2022/06/15 08:34:22;;;;;;;4.05;2.30;;;25.00;88.20;;;;;;5014480;28;20264;-71
2022/06/15 08:36:50;;;;;;;5.30;2.15;;;24.90;89.80;;;;;;5014440;28;20209;-71
2022/06/15 08:39:18;;;;;;;4.60;2.60;;;25.00;88.10;;;;;;5014520;28;20229;-71
2022/06/15 08:41:55;;;;;;;6.85;1.90;;;25.20;88.90;;;;;;4995434;28;20308;-71
2022/06/15 08:44:31;;;;;;;4.07;1.90;;;25.40;89.20;;;;;;5013425;28;20247;-71
2022/06/15 08:47:11;;;;;;;2.78;2.20;;;25.30;88.70;;;;;;5014048;28;20241;-71
2022/06/15 08:49:50;;;;;;;3.70;1.98;;;25.60;87.50;;;;;;5014040;28;20228;-71
2022/06/15 08:52:21;;;;;;;2.95;1.67;;;25.80;87.50;;;;;;5013176;28;20201;-71
2022/06/15 08:54:57;;;;;;;4.85;2.25;;;25.90;87.90;;;;;;5013348;28;20201;-70
2022/06/15 08:57:39;;;;;;;2.17;1.98;;;26.10;87.50;;;;;;5013847;28;20762;-71
2022/06/15 09:00:14;;;;;;;2.25;2.05;;;26.10;84.70;;;;;;5013457;28;20244;-71
2022/06/15 09:03:00;;;;;;;2.10;1.90;;;26.20;85.50;;;;;;5012078;28;20201;-71
2022/06/15 09:05:39;;;;;;;6.00;2.30;;;26.60;85.20;;;;;;5013714;28;20567;-71
2022/06/15 09:08:32;;;;;;;7.22;2.15;;;26.80;86.90;;;;;;5008874;28;20288;-71
2022/06/15 09:11:12;;;;;;;3.78;2.08;;;26.80;84.30;;;;;;5013466;28;20239;-71
2022/06/15 09:13:54;;;;;;;3.67;2.30;;;27.00;85.10;;;;;;5012847;28;20216;-71
2022/06/15 09:16:30;;;;;;;3.22;2.10;;;27.40;84.80;;;;;;5007755;28;20658;-71
2022/06/15 09:19:07;;;;;;;3.42;2.40;;;27.70;83.80;;;;;;5012684;28;20275;-71
2022/06/15 09:21:41;;;;;;;6.03;2.40;;;28.00;82.90;;;;;;5012882;28;20227;-71
2022/06/15 09:24:14;;;;;;;3.25;2.45;;;28.20;81.30;;;;;;5012534;28;20682;-71
2022/06/15 09:26:49;;;;;;;2.40;2.05;;;28.20;82.50;;;;;;5012913;28;20263;-71
2022/06/15 09:29:21;;;;;;;2.88;2.55;;;28.20;81.70;;;;;;4995599;28;20229;-71
2022/06/15 09:31:55;;;;;;;5.25;2.47;;;28.20;80.90;;;;;;5012960;28;20251;-71
2022/06/15 09:34:26;;;;;;;3.25;2.22;;;28.40;80.40;;;;;;5005489;28;20293;-71
2022/06/15 09:36:57;;;;;;;5.03;2.90;;;28.70;80.90;;;;;;5012258;28;20201;-71
2022/06/15 09:39:27;;;;;;;4.15;1.88;;;28.50;79.30;;;;;;5014052;28;20221;-72
2022/06/15 09:42:03;;;;;;;3.38;2.38;;;28.50;79.80;;;;;;5013025;28;20244;-71
2022/06/15 09:44:37;;;;;;;3.80;2.40;;;28.70;81.40;;;;;;5013352;28;20196;-71
2022/06/15 09:47:20;;;;;;;3.80;2.10;;;29.10;80.00;;;;;;5012576;28;20483;-71
2022/06/15 09:49:53;;;;;;;5.05;2.35;;;29.30;78.40;;;;;;5012833;28;20227;-71
2022/06/15 09:52:33;;;;;;;3.45;1.98;;;29.20;77.40;;;;;;5012277;28;20202;-71
2022/06/15 09:55:07;;;;;;;2.60;2.40;;;29.00;77.60;;;;;;5011927;28;20236;-71
2022/06/15 09:57:36;;;;;;;3.97;2.20;;;29.10;77.00;;;;;;5012684;28;20204;-70
2022/06/15 10:00:07;;;;;;;3.58;2.15;;;29.50;78.60;;;;;;5031452;22;20773;-65
2022/06/15 10:02:38;;;;;;;3.20;2.70;;;29.70;77.20;;;;;;4997537;28;20317;-65
2022/06/15 10:05:16;;;;;;;3.70;2.97;;;29.80;77.50;;;;;;5011810;28;20845;-65
2022/06/15 10:07:46;;;;;;;3.05;2.20;;;29.80;76.60;;;;;;5012052;28;20200;-64
2022/06/15 10:10:18;;;;;;;3.97;2.38;;;30.20;77.30;;;;;;5001411;28;20305;-64
2022/06/15 10:12:58;;;;;;;3.95;2.47;;;30.40;75.10;;;;;;4992116;28;20206;-65
2022/06/15 10:15:32;;;;;;;4.25;2.40;;;30.40;73.80;;;;;;4992595;28;20591;-65
2022/06/15 10:18:14;;;;;;;6.43;1.92;;;30.40;73.40;;;;;;4992672;28;20546;-65
2022/06/15 10:20:53;;;;;;;5.18;2.22;;;30.50;73.90;;;;;;4992431;28;20221;-65
2022/06/15 10:23:35;;;;;;;5.23;2.60;;;30.90;73.80;;;;;;4991856;28;20317;-65
2022/06/15 10:26:03;;;;;;;4.10;2.42;;;31.10;76.20;;;;;;4991690;28;20621;-65
2022/06/15 10:28:35;;;;;;;4.87;2.23;;;31.10;72.90;;;;;;4992457;28;20198;-65
2022/06/15 10:31:05;;;;;;;3.03;2.10;;;31.20;72.30;;;;;;4992098;28;20665;-65
2022/06/15 10:33:38;;;;;;;4.07;2.00;;;31.40;71.10;;;;;;4991808;28;21040;-65
2022/06/15 10:36:20;;;;;;;2.60;2.23;;;31.60;70.70;;;;;;4992426;28;20687;-65
2022/06/15 10:38:53;;;;;;;2.95;2.05;;;31.90;70.80;;;;;;4992808;28;20760;-65
2022/06/15 10:41:48;;;;;;;4.20;2.70;;;32.20;70.20;;;;;;4988236;28;20549;-65
2022/06/15 10:44:28;;;;;;;4.20;2.40;;;32.60;70.30;;;;;;4991699;28;20667;-65
2022/06/15 10:47:01;;;;;;;4.50;2.03;;;32.30;71.10;;;;;;4992357;28;20620;-65
2022/06/15 10:49:33;;;;;;;5.20;2.90;;;32.20;71.30;;;;;;4992058;28;21215;-65
2022/06/15 10:52:01;;;;;;;3.07;2.30;;;31.90;69.30;;;;;;4991220;28;20646;-64
2022/06/15 11:02:06;;;;;;;2.30;1.93;;;31.90;70.50;;;;;;4991474;28;20641;-65
2022/06/15 11:03:17;;;;;;;2.60;2.40;;;32.40;71.10;;;;;;4991121;28;20718;-65
2022/06/15 11:05:46;;;;;;;4.93;2.80;;;32.20;70.30;;;;;;4991826;28;20990;-65
2022/06/15 11:08:18;;;;;;;6.63;2.63;;;32.30;69.00;;;;;;4985685;28;20613;-65
2022/06/15 11:10:50;;;;;;;2.47;2.27;;;32.80;67.90;;;;;;4988773;28;20696;-65
2022/06/15 11:13:34;;;;;;;3.17;2.53;;;33.40;68.10;;;;;;4991313;28;20694;-65
2022/06/15 11:19:10;;;;;;;4.07;2.53;;;34.00;66.60;;;;;;4991934;28;20719;-65
2022/06/15 11:21:43;;;;;;;3.60;2.90;;;33.90;67.40;;;;;;4991337;28;21221;-65
2022/06/15 11:24:23;;;;;;;2.90;2.40;;;33.90;67.20;;;;;;4991080;28;21011;-65
2022/06/15 11:26:59;;;;;;;5.80;2.53;;;34.00;67.30;;;;;;4992005;28;20651;-65
2022/06/15 11:29:37;;;;;;;3.00;2.70;;;33.80;68.20;;;;;;4991031;28;20664;-65
2022/06/15 11:32:15;;;;;;;2.70;2.13;;;33.60;65.80;;;;;;4990761;28;20719;-65
2022/06/15 11:34:54;;;;;;;3.50;2.30;;;34.00;68.50;;;;;;4991458;28;20625;-66
2022/06/15 11:37:27;;;;;;;4.77;2.30;;;33.90;65.80;;;;;;4991961;28;20609;-65
2022/06/15 11:40:06;;;;;;;4.03;2.70;;;34.20;66.80;;;;;;4989134;28;20671;-65
2022/06/15 11:42:36;;;;;;;5.00;2.43;;;34.40;64.00;;;;;;4988960;28;20656;-65
2022/06/15 11:45:06;;;;;;;3.20;2.90;;;34.80;64.70;;;;;;4991416;28;20652;-66
2022/06/15 11:47:46;;;;;;;2.97;2.33;;;35.10;65.20;;;;;;4991657;28;20659;-65
2022/06/15 11:50:23;;;;;;;5.83;2.70;;;35.10;64.90;;;;;;4984973;28;20676;-65
2022/06/15 11:53:02;;;;;;;4.57;2.47;;;35.10;65.60;;;;;;4990863;28;20962;-65
2022/06/15 11:55:38;;;;;;;3.90;2.90;;;34.80;63.40;;;;;;4991295;28;20621;-66
2022/06/15 11:58:31;;;;;;;3.17;2.03;;;34.20;63.70;;;;;;4991265;28;20662;-65
2022/06/15 12:01:10;;;;;;;3.93;2.20;;;33.70;64.50;;;;;;4995051;28;20661;-65
2022/06/15 12:04:10;;;;;;;3.10;2.03;;;34.00;63.50;;;;;;4989968;28;20652;-66
2022/06/15 12:06:47;;;;;;;4.67;2.33;;;34.40;63.70;;;;;;4994453;28;20997;-65
2022/06/15 12:09:25;;;;;;;4.67;2.63;;;34.60;62.00;;;;;;4995098;28;20682;-66
2022/06/15 12:14:51;;;;;;;2.60;2.40;;;34.60;64.00;;;;;;4995074;28;20620;-65
2022/06/15 12:17:25;;;;;;;3.67;2.33;;;34.80;63.00;;;;;;4994919;28;20711;-65
2022/06/15 12:19:59;;;;;;;4.07;3.00;;;34.70;63.50;;;;;;4988282;28;20703;-65
2022/06/15 12:22:34;;;;;;;3.27;2.30;;;34.80;62.50;;;;;;4994240;28;20735;-65
2022/06/15 12:25:07;;;;;;;2.30;2.10;;;35.40;61.80;;;;;;4994661;28;20720;-65
2022/06/15 12:27:42;;;;;;;8.33;2.67;;;35.60;62.80;;;;;;4994462;28;20605;-65
2022/06/15 12:30:26;;;;;;;3.60;2.50;;;36.10;61.30;;;;;;4994627;28;20639;-65
2022/06/15 12:33:06;;;;;;;3.23;2.17;;;36.00;62.10;;;;;;4993937;28;21357;-63
2022/06/15 12:35:39;;;;;;;2.70;2.40;;;36.30;60.10;;;;;;4994398;28;20671;-63
2022/06/15 12:38:20;;;;;;;2.30;2.10;;;36.50;60.60;;;;;;4989476;28;20616;-63
2022/06/15 12:40:52;;;;;;;5.10;2.40;;;36.80;60.10;;;;;;4994315;28;20679;-63
2022/06/15 12:43:29;;;;;;;2.80;2.27;;;36.20;59.50;;;;;;4993410;28;20656;-63
2022/06/15 12:46:06;;;;;;;8.17;2.90;;;36.30;58.80;;;;;;4994451;28;20660;-63
2022/06/15 12:48:42;;;;;;;5.60;2.83;;;36.30;59.70;;;;;;4994492;28;21165;-63
2022/06/15 12:51:16;;;;;;;2.30;2.20;;;36.00;60.00;;;;;;4993342;28;20691;-63
2022/06/15 12:53:58;;;;;;;2.63;2.43;;;35.80;59.60;;;;;;4993598;28;20707;-63
2022/06/15 12:56:36;;;;;;;4.87;2.30;;;35.80;61.00;;;;;;4994490;28;20658;-63
2022/06/15 12:59:19;;;;;;;4.53;2.70;;;35.90;59.80;;;;;;4994184;28;20643;-63
2022/06/15 13:01:55;;;;;;;4.43;3.30;;;35.70;61.20;;;;;;4993869;28;20663;-66
2022/06/15 13:04:33;;;;;;;3.17;2.37;;;35.30;60.60;;;;;;4987158;28;21116;-66
2022/06/15 13:07:23;;;;;;;3.80;2.90;;;35.20;61.50;;;;;;4989295;28;20670;-65
2022/06/15 13:10:17;;;;;;;6.30;2.87;;;35.20;59.90;;;;;;4994421;28;20632;-66
2022/06/15 13:12:48;;;;;;;2.73;2.43;;;35.10;59.60;;;;;;4987576;28;21197;-65
2022/06/15 13:15:22;;;;;;;3.20;2.70;;;35.60;60.40;;;;;;4993901;28;20672;-65
2022/06/15 13:18:11;;;;;;;3.07;2.47;;;35.70;59.70;;;;;;4993909;28;21173;-65
2022/06/15 13:21:01;;;;;;;6.33;2.80;;;35.20;60.90;;;;;;4993787;28;20751;-65
2022/06/15 13:23:32;;;;;;;2.33;2.13;;;35.40;59.20;;;;;;4992890;28;20648;-66
2022/06/15 13:26:06;;;;;;;2.47;2.27;;;35.80;59.80;;;;;;4992874;28;21456;-66
2022/06/15 13:28:37;;;;;;;5.43;2.50;;;36.00;58.90;;;;;;4993785;28;21043;-63
2022/06/15 13:31:08;;;;;;;5.43;2.83;;;36.00;59.50;;;;;;4993578;28;20648;-66
2022/06/15 13:34:05;;;;;;;3.20;2.40;;;35.90;59.20;;;;;;4993239;28;20608;-66
2022/06/15 13:36:36;;;;;;;5.00;2.73;;;35.80;59.40;;;;;;4993154;28;20659;-65
2022/06/15 13:39:24;;;;;;;3.80;2.53;;;35.80;58.80;;;;;;4993399;28;21197;-65